Time;durP1;ratioP1;P1;durP2;ratioP2;P2;SDS_P1;SDS_P2;PMS_P1;PMS_P2;Temp;Humidity;BMP_temperature;BMP_pressure;BME280_temperature;BME280_humidity;BME280_pressure;Samples;Min_cycle;Max_cycle;Signal;HPM_P1;HPM_P2
2022/12/21 00:01:20;;;;;;;2.67;0.70;;;16.10;1.00;;;;;;5071573;28;20044;-37
2022/12/21 00:03:54;;;;;;;1.70;0.95;;;16.10;1.00;;;;;;5071359;28;20041;-37
2022/12/21 00:06:22;;;;;;;3.67;0.90;;;16.10;1.00;;;;;;5071478;28;20047;-37
2022/12/21 00:08:51;;;;;;;1.13;0.40;;;16.10;1.00;;;;;;5071494;28;20040;-37
2022/12/21 00:11:21;;;;;;;4.90;1.48;;;16.00;1.00;;;;;;5071548;28;20045;-37
2022/12/21 00:13:48;;;;;;;2.05;0.88;;;16.00;1.00;;;;;;5071337;28;20538;-37
2022/12/21 00:16:18;;;;;;;2.65;0.73;;;16.00;1.00;;;;;;5071396;28;20068;-37
2022/12/21 00:18:46;;;;;;;3.28;0.88;;;16.00;1.00;;;;;;5071381;28;20040;-37
2022/12/21 00:21:24;;;;;;;2.35;0.60;;;16.00;1.00;;;;;;5074308;28;20094;-37
2022/12/21 00:23:52;;;;;;;4.03;0.90;;;16.00;1.00;;;;;;5075308;28;20416;-37
2022/12/21 00:26:22;;;;;;;5.13;0.98;;;15.90;1.00;;;;;;5075377;28;20090;-37
2022/12/21 00:28:51;;;;;;;1.88;1.05;;;15.90;1.00;;;;;;5075311;28;20040;-37
2022/12/21 00:31:20;;;;;;;3.38;0.88;;;15.90;1.00;;;;;;5057164;28;20411;-37
2022/12/21 00:33:48;;;;;;;2.97;0.90;;;15.80;1.00;;;;;;5056918;28;20044;-37
2022/12/21 00:36:17;;;;;;;4.97;1.50;;;15.80;1.00;;;;;;5075195;28;20064;-37
2022/12/21 00:38:46;;;;;;;2.90;1.13;;;15.80;1.00;;;;;;5057095;28;20048;-37
2022/12/21 00:41:16;;;;;;;7.55;1.05;;;15.80;1.00;;;;;;5074985;28;20037;-37
2022/12/21 00:43:43;;;;;;;2.38;0.95;;;15.80;1.00;;;;;;5074691;28;20223;-37
2022/12/21 00:46:20;;;;;;;4.95;0.70;;;15.70;1.00;;;;;;5057049;28;20178;-37
2022/12/21 00:48:48;;;;;;;1.70;0.68;;;15.70;1.00;;;;;;5074718;28;20032;-37
2022/12/21 00:51:19;;;;;;;2.15;0.70;;;15.70;1.00;;;;;;5074817;28;20472;-37
2022/12/21 00:53:47;;;;;;;4.15;0.93;;;15.70;1.00;;;;;;5056595;28;20044;-37
2022/12/21 00:56:15;;;;;;;3.40;0.57;;;15.70;1.00;;;;;;5056621;28;20052;-37
2022/12/21 00:58:42;;;;;;;4.13;1.02;;;15.70;1.00;;;;;;5074860;28;20032;-37
2022/12/21 01:01:16;;;;;;;2.35;0.95;;;15.60;1.00;;;;;;5074644;28;20040;-37
2022/12/21 01:03:43;;;;;;;3.40;0.80;;;15.60;1.00;;;;;;5056485;28;20447;-37
2022/12/21 01:06:21;;;;;;;3.75;0.65;;;15.60;1.00;;;;;;5074581;28;20049;-37
2022/12/21 01:08:48;;;;;;;2.05;0.47;;;15.60;1.00;;;;;;5056603;28;20094;-37
2022/12/21 01:11:18;;;;;;;5.47;1.10;;;15.60;1.00;;;;;;5056550;28;20047;-37
2022/12/21 01:13:45;;;;;;;2.53;0.80;;;15.60;1.00;;;;;;5056256;28;20407;-37
2022/12/21 01:16:14;;;;;;;1.52;0.70;;;15.60;1.00;;;;;;5056398;28;20049;-37
2022/12/21 01:18:41;;;;;;;3.83;0.82;;;15.50;1.00;;;;;;5074326;28;20083;-37
2022/12/21 01:21:14;;;;;;;1.55;0.52;;;15.50;1.00;;;;;;5056247;28;20037;-37
2022/12/21 01:23:41;;;;;;;2.65;0.80;;;15.50;1.00;;;;;;5056062;28;20084;-37
2022/12/21 01:26:08;;;;;;;3.13;0.98;;;15.50;1.00;;;;;;5074238;28;20029;-37
2022/12/21 01:28:35;;;;;;;2.65;0.68;;;15.50;1.00;;;;;;5074131;28;20045;-37
2022/12/21 01:31:02;;;;;;;2.78;1.00;;;15.50;1.00;;;;;;5073884;28;20045;-37
2022/12/21 01:33:30;;;;;;;2.63;1.15;;;15.50;1.00;;;;;;5073310;28;20136;-37
2022/12/21 01:35:57;;;;;;;2.20;0.57;;;15.40;1.00;;;;;;5039450;28;20139;-37
2022/12/21 01:38:23;;;;;;;1.75;0.70;;;15.40;1.00;;;;;;5073914;28;20083;-37
2022/12/21 01:40:50;;;;;;;5.13;1.20;;;15.40;1.00;;;;;;5055991;28;20047;-37
2022/12/21 01:43:44;;;;;;;2.80;0.57;;;15.40;1.00;;;;;;5055574;28;20056;-37
2022/12/21 01:46:31;;;;;;;4.53;0.73;;;15.40;1.00;;;;;;5073795;28;20036;-37
2022/12/21 01:49:26;;;;;;;2.78;0.47;;;15.40;1.00;;;;;;5055584;28;20051;-37
2022/12/21 01:51:58;;;;;;;3.60;0.65;;;15.40;1.00;;;;;;5073769;28;20028;-37
2022/12/21 01:54:30;;;;;;;1.48;0.50;;;15.30;1.00;;;;;;5055589;28;20496;-37
2022/12/21 01:57:00;;;;;;;2.33;0.90;;;15.30;1.00;;;;;;5072281;28;20114;-38
2022/12/21 01:59:29;;;;;;;2.08;0.77;;;15.30;1.00;;;;;;5072551;28;20732;-37
2022/12/21 02:02:01;;;;;;;1.85;0.80;;;15.30;1.00;;;;;;5073405;28;20048;-37
2022/12/21 02:04:28;;;;;;;2.25;0.45;;;15.30;1.00;;;;;;5073334;28;20119;-37
2022/12/21 02:06:56;;;;;;;4.18;1.13;;;15.20;1.00;;;;;;5073468;28;20040;-37
2022/12/21 02:09:27;;;;;;;3.97;0.65;;;15.30;1.00;;;;;;5073387;28;20039;-37
2022/12/21 02:11:57;;;;;;;1.67;0.52;;;15.30;1.00;;;;;;5073363;28;20116;-37
2022/12/21 02:14:28;;;;;;;2.92;1.00;;;15.20;1.00;;;;;;5071889;28;20048;-37
2022/12/21 02:17:18;;;;;;;2.15;0.65;;;15.20;1.00;;;;;;5055248;28;20044;-37
2022/12/21 02:20:15;;;;;;;1.55;0.63;;;15.20;1.00;;;;;;5073173;28;20044;-37
2022/12/21 02:22:54;;;;;;;1.38;0.50;;;15.20;1.00;;;;;;5054962;28;20047;-37
2022/12/21 02:25:40;;;;;;;3.20;0.43;;;15.20;1.00;;;;;;5073194;28;20115;-37
2022/12/21 02:28:41;;;;;;;2.70;0.80;;;15.20;1.00;;;;;;5054936;28;20106;-37
2022/12/21 02:31:14;;;;;;;4.00;0.55;;;15.20;1.00;;;;;;5072980;28;20052;-37
2022/12/21 02:33:51;;;;;;;5.40;1.40;;;15.10;1.00;;;;;;5072622;28;20412;-37
2022/12/21 02:36:27;;;;;;;1.75;0.70;;;15.10;1.00;;;;;;5054908;28;20106;-37
2022/12/21 02:39:11;;;;;;;2.92;0.98;;;15.10;1.00;;;;;;5072906;28;20446;-37
2022/12/21 02:41:58;;;;;;;3.05;0.65;;;15.10;1.00;;;;;;5055125;28;20116;-37
2022/12/21 02:44:32;;;;;;;4.68;0.93;;;15.10;1.00;;;;;;5071438;28;20098;-37
2022/12/21 02:47:16;;;;;;;3.35;0.73;;;15.10;1.00;;;;;;5072570;28;20041;-37
2022/12/21 02:50:05;;;;;;;6.15;0.75;;;15.00;1.00;;;;;;5072706;28;20037;-37
2022/12/21 02:53:00;;;;;;;2.83;0.75;;;15.00;1.00;;;;;;5072339;28;20045;-37
2022/12/21 02:55:28;;;;;;;4.07;0.90;;;15.00;1.00;;;;;;5051023;28;20049;-37
2022/12/21 02:58:20;;;;;;;3.72;1.30;;;15.00;1.00;;;;;;5071061;28;20110;-37
2022/12/21 03:00:52;;;;;;;3.95;0.95;;;15.00;1.00;;;;;;5054344;28;20044;-37
2022/12/21 03:04:07;;;;;;;1.38;0.60;;;15.00;1.00;;;;;;5054095;28;20072;-37
2022/12/21 03:07:05;;;;;;;3.58;0.50;;;15.00;1.00;;;;;;5001624;28;20049;-37
2022/12/21 03:09:59;;;;;;;4.10;1.08;;;15.00;1.00;;;;;;5070930;28;20067;-37
2022/12/21 03:12:32;;;;;;;4.90;1.13;;;14.90;1.00;;;;;;5070722;28;20467;-37
2022/12/21 03:15:18;;;;;;;3.65;0.60;;;14.90;1.00;;;;;;5054116;28;20496;-37
2022/12/21 03:18:06;;;;;;;3.83;1.45;;;14.90;1.00;;;;;;5054110;28;20427;-37
2022/12/21 03:20:35;;;;;;;1.45;0.57;;;14.90;1.00;;;;;;5054085;28;20071;-37
2022/12/21 03:23:21;;;;;;;3.90;0.82;;;14.90;1.00;;;;;;5053650;28;20044;-37
2022/12/21 03:26:00;;;;;;;5.93;1.83;;;14.90;1.00;;;;;;5099018;28;20044;-37
2022/12/21 03:28:30;;;;;;;4.43;0.93;;;14.90;1.00;;;;;;5082668;28;20050;-37
2022/12/21 03:31:06;;;;;;;1.25;0.45;;;14.90;1.00;;;;;;5104953;28;20518;-37
2022/12/21 03:33:40;;;;;;;5.70;1.08;;;14.90;1.00;;;;;;5103693;28;20436;-37
2022/12/21 03:36:13;;;;;;;5.05;0.80;;;14.90;1.00;;;;;;5112326;28;20075;-37
2022/12/21 03:39:01;;;;;;;2.40;0.43;;;14.90;1.00;;;;;;5092736;28;20123;-37
2022/12/21 03:41:36;;;;;;;3.30;0.80;;;14.90;1.00;;;;;;5091959;28;20040;-37
2022/12/21 03:44:08;;;;;;;3.70;0.95;;;14.80;1.00;;;;;;5091589;28;20048;-37
2022/12/21 03:46:40;;;;;;;5.57;1.23;;;14.90;1.00;;;;;;5091980;28;20040;-37
2022/12/21 03:49:13;;;;;;;4.15;0.82;;;14.80;1.00;;;;;;5091790;28;20072;-37
2022/12/21 03:51:46;;;;;;;2.15;0.80;;;14.80;1.00;;;;;;5092003;28;20075;-37
2022/12/21 03:54:42;;;;;;;1.75;0.52;;;14.80;1.00;;;;;;5099750;28;20043;-37
2022/12/21 03:57:10;;;;;;;1.30;0.50;;;14.80;1.00;;;;;;5108452;28;20542;-37
2022/12/21 03:59:44;;;;;;;3.17;1.20;;;14.80;1.00;;;;;;5112158;28;20575;-37
2022/12/21 04:02:32;;;;;;;4.85;0.95;;;14.80;1.00;;;;;;5112072;28;20039;-37
2022/12/21 04:05:30;;;;;;;4.13;1.05;;;14.70;1.00;;;;;;5112119;28;20044;-37
2022/12/21 04:07:57;;;;;;;1.98;0.52;;;14.80;1.00;;;;;;5112093;28;20032;-37
2022/12/21 04:10:25;;;;;;;2.90;0.63;;;14.70;1.00;;;;;;5112063;28;20036;-37
2022/12/21 04:12:52;;;;;;;1.98;0.47;;;14.70;1.00;;;;;;5111772;28;20594;-37
2022/12/21 04:15:21;;;;;;;2.17;0.57;;;14.70;1.00;;;;;;5112041;28;20051;-37
2022/12/21 04:17:50;;;;;;;3.97;1.13;;;14.70;1.00;;;;;;5112002;28;20116;-37
2022/12/21 04:20:23;;;;;;;5.05;0.98;;;14.70;1.00;;;;;;5111931;28;20050;-37
2022/12/21 04:28:30;;;;;;;1.40;0.40;;;14.70;1.00;;;;;;5111988;28;20113;-37
2022/12/21 04:31:15;;;;;;;1.88;0.68;;;14.70;1.00;;;;;;5097030;28;20089;-37
2022/12/21 04:33:42;;;;;;;2.65;1.00;;;14.60;1.00;;;;;;5091302;28;20050;-37
2022/12/21 04:38:54;;;;;;;1.77;0.68;;;14.60;1.00;;;;;;5091535;28;20078;-37
2022/12/21 04:41:21;;;;;;;3.88;0.98;;;14.60;1.00;;;;;;5091372;28;20062;-37
2022/12/21 04:43:48;;;;;;;5.80;0.73;;;14.60;1.00;;;;;;5073056;28;20177;-37
2022/12/21 04:46:15;;;;;;;3.83;0.70;;;14.60;1.00;;;;;;5091482;28;20104;-37
2022/12/21 04:48:44;;;;;;;4.25;0.65;;;14.60;1.00;;;;;;5073222;28;20070;-37
2022/12/21 04:51:25;;;;;;;2.53;0.82;;;14.60;1.00;;;;;;5091334;28;20047;-37
2022/12/21 04:53:52;;;;;;;1.65;0.50;;;14.60;1.00;;;;;;5091081;28;20127;-37
2022/12/21 04:56:19;;;;;;;5.63;1.00;;;14.60;1.00;;;;;;5091354;28;20120;-37
2022/12/21 04:58:46;;;;;;;3.97;1.10;;;14.60;1.00;;;;;;5091316;28;20067;-37
2022/12/21 05:01:16;;;;;;;3.65;1.20;;;14.60;1.00;;;;;;5091127;28;20076;-37
2022/12/21 05:03:44;;;;;;;2.95;0.95;;;14.60;1.00;;;;;;5091065;28;20238;-37
2022/12/21 05:06:12;;;;;;;4.47;1.35;;;14.60;1.00;;;;;;5091173;28;20105;-38
2022/12/21 05:08:39;;;;;;;4.10;0.80;;;14.60;1.00;;;;;;5094500;28;20059;-37
2022/12/21 05:11:07;;;;;;;4.25;0.77;;;14.50;1.00;;;;;;5094845;28;20048;-38
2022/12/21 05:13:35;;;;;;;3.05;1.27;;;14.50;1.00;;;;;;5094541;28;20097;-38
2022/12/21 05:16:07;;;;;;;10.80;1.35;;;14.50;1.00;;;;;;5094761;28;20047;-38
2022/12/21 05:18:34;;;;;;;8.50;1.10;;;14.60;1.00;;;;;;5094670;28;20097;-38
2022/12/21 05:21:01;;;;;;;3.35;0.80;;;14.60;1.00;;;;;;5094925;28;20132;-38
2022/12/21 05:23:27;;;;;;;8.20;1.20;;;14.60;1.00;;;;;;5092482;28;20484;-38
2022/12/21 05:25:54;;;;;;;3.78;0.57;;;14.60;1.00;;;;;;5102799;28;20040;-36
2022/12/21 05:28:21;;;;;;;8.60;1.52;;;14.70;1.00;;;;;;5111577;28;20067;-36
2022/12/21 05:30:47;;;;;;;6.07;1.30;;;14.70;1.00;;;;;;5106238;28;20055;-36
2022/12/21 05:33:14;;;;;;;13.52;1.55;;;14.80;1.00;;;;;;5109680;28;20465;-38
2022/12/21 05:35:42;;;;;;;4.40;0.90;;;14.90;1.00;;;;;;5106117;28;20035;-36
2022/12/21 05:38:09;;;;;;;4.45;1.00;;;15.00;1.00;;;;;;5114532;28;20138;-36
2022/12/21 05:40:35;;;;;;;6.60;1.23;;;15.10;1.00;;;;;;5114089;28;20067;-36
2022/12/21 05:43:03;;;;;;;8.13;1.38;;;15.20;1.00;;;;;;5114223;28;20070;-36
2022/12/21 05:45:30;;;;;;;3.30;0.75;;;15.30;1.00;;;;;;5114528;28;20505;-36
2022/12/21 05:47:57;;;;;;;3.70;0.82;;;15.40;1.00;;;;;;5114178;28;20045;-36
2022/12/21 05:50:24;;;;;;;4.05;1.50;;;15.60;1.00;;;;;;5114550;28;20443;-36
2022/12/21 05:52:52;;;;;;;6.95;1.15;;;15.60;1.00;;;;;;5114111;28;20031;-36
2022/12/21 05:55:19;;;;;;;5.60;0.95;;;15.70;1.00;;;;;;5105433;28;20043;-36
2022/12/21 05:57:46;;;;;;;3.95;1.05;;;15.90;1.00;;;;;;5096765;28;20465;-36
2022/12/21 06:00:13;;;;;;;3.33;1.02;;;15.90;1.00;;;;;;5101474;28;20040;-36
2022/12/21 06:02:41;;;;;;;2.90;0.60;;;16.00;1.00;;;;;;5106230;28;20051;-36
2022/12/21 06:05:09;;;;;;;4.43;0.82;;;16.10;1.00;;;;;;5114169;28;20050;-37
2022/12/21 06:07:36;;;;;;;4.28;1.70;;;16.20;1.00;;;;;;5114125;28;20036;-36
2022/12/21 06:10:04;;;;;;;5.95;1.05;;;16.20;1.00;;;;;;5113994;28;20538;-36
2022/12/21 06:12:32;;;;;;;9.13;1.70;;;16.30;1.00;;;;;;5113895;28;20039;-36
2022/12/21 06:14:59;;;;;;;6.05;1.73;;;16.40;1.00;;;;;;5113710;28;20047;-36
2022/12/21 06:17:30;;;;;;;3.80;0.70;;;16.40;1.00;;;;;;5095295;28;20040;-36
2022/12/21 06:19:57;;;;;;;4.28;0.80;;;16.50;1.00;;;;;;5095635;28;20089;-36
2022/12/21 06:22:24;;;;;;;4.63;0.60;;;16.50;1.00;;;;;;5113479;28;20040;-37
2022/12/21 06:24:50;;;;;;;3.65;1.40;;;16.50;1.00;;;;;;5113565;28;20036;-36
2022/12/21 06:27:17;;;;;;;6.93;1.45;;;16.50;1.00;;;;;;5113690;28;20048;-37
2022/12/21 06:29:44;;;;;;;3.80;0.80;;;16.50;1.00;;;;;;5113718;28;20123;-36
2022/12/21 06:32:11;;;;;;;4.18;0.90;;;16.60;1.00;;;;;;5113551;28;20050;-37
2022/12/21 06:34:37;;;;;;;5.32;0.88;;;16.50;1.00;;;;;;5113404;28;20051;-37
2022/12/21 06:37:04;;;;;;;7.40;1.35;;;16.60;1.00;;;;;;5113495;28;20055;-37
2022/12/21 06:39:31;;;;;;;4.68;1.00;;;16.50;1.00;;;;;;5113274;28;20054;-36
2022/12/21 06:41:58;;;;;;;3.85;0.82;;;16.50;1.00;;;;;;5113214;28;20035;-36
2022/12/21 06:44:29;;;;;;;6.07;1.02;;;16.50;1.00;;;;;;5094812;28;20403;-36
2022/12/21 06:46:56;;;;;;;3.30;1.10;;;16.50;1.00;;;;;;5113330;28;20035;-36
2022/12/21 06:49:23;;;;;;;6.47;0.82;;;16.50;1.00;;;;;;5113280;28;20124;-36
2022/12/21 06:51:50;;;;;;;1.88;0.60;;;16.50;1.00;;;;;;5113308;28;20044;-36
2022/12/21 06:54:17;;;;;;;2.53;1.05;;;16.40;1.00;;;;;;5112973;28;20249;-36
2022/12/21 06:56:44;;;;;;;2.97;0.68;;;16.40;1.00;;;;;;5113576;28;20438;-36
2022/12/21 06:59:11;;;;;;;3.90;1.20;;;16.40;1.00;;;;;;5113134;28;20651;-36
2022/12/21 07:01:38;;;;;;;2.38;0.70;;;16.40;1.00;;;;;;5094870;28;20043;-36
2022/12/21 07:04:04;;;;;;;2.72;0.93;;;16.40;1.00;;;;;;5112770;28;20502;-36
2022/12/21 07:06:31;;;;;;;2.38;1.13;;;16.30;1.00;;;;;;5113013;28;20501;-36
2022/12/21 07:08:59;;;;;;;3.58;0.90;;;16.30;1.00;;;;;;5112839;28;20035;-36
2022/12/21 07:11:29;;;;;;;3.70;1.02;;;16.30;1.00;;;;;;5094309;28;20043;-36
2022/12/21 07:13:56;;;;;;;3.65;0.90;;;16.20;1.00;;;;;;5112508;28;20283;-36
2022/12/21 07:16:23;;;;;;;2.50;1.00;;;16.20;1.00;;;;;;5112868;28;20039;-36
2022/12/21 07:18:51;;;;;;;2.88;0.93;;;16.20;1.00;;;;;;5112866;28;20094;-36
2022/12/21 07:21:19;;;;;;;3.35;0.60;;;16.20;1.00;;;;;;5112648;28;20035;-36
2022/12/21 07:23:47;;;;;;;4.50;0.77;;;16.20;1.00;;;;;;5112340;28;20120;-36
2022/12/21 07:26:16;;;;;;;2.60;0.95;;;16.10;1.00;;;;;;5112544;28;20040;-36
2022/12/21 07:28:43;;;;;;;2.22;0.60;;;16.10;1.00;;;;;;5112499;28;20046;-36
2022/12/21 07:31:13;;;;;;;4.45;0.80;;;16.10;1.00;;;;;;5111908;28;20078;-36
2022/12/21 07:33:43;;;;;;;9.43;1.58;;;16.10;1.00;;;;;;5112174;28;20047;-36
2022/12/21 07:36:10;;;;;;;3.60;0.88;;;16.10;1.00;;;;;;5112336;28;20047;-36
2022/12/21 07:38:39;;;;;;;5.22;1.30;;;16.00;1.00;;;;;;5094002;28;20641;-36
2022/12/21 07:41:08;;;;;;;5.57;1.13;;;16.00;1.00;;;;;;5112174;28;20075;-36
2022/12/21 07:43:36;;;;;;;2.22;0.77;;;16.00;1.00;;;;;;5112099;28;20118;-36
2022/12/21 07:46:26;;;;;;;2.42;0.75;;;15.90;1.00;;;;;;5091373;28;20079;-36
2022/12/21 07:48:54;;;;;;;3.88;0.90;;;15.90;1.00;;;;;;5091360;28;20445;-36
2022/12/21 07:51:21;;;;;;;2.10;0.70;;;15.90;1.00;;;;;;5108574;28;20063;-36
2022/12/21 07:53:48;;;;;;;4.13;1.25;;;15.80;1.00;;;;;;5107830;28;20055;-36
2022/12/21 07:56:17;;;;;;;4.57;1.27;;;15.80;1.00;;;;;;5108280;28;20071;-36
2022/12/21 07:58:44;;;;;;;4.40;0.88;;;15.80;1.00;;;;;;5086938;28;20394;-36
2022/12/21 08:01:13;;;;;;;3.75;0.70;;;15.80;1.00;;;;;;5093960;28;20055;-36
2022/12/21 08:03:42;;;;;;;4.28;1.15;;;15.70;1.00;;;;;;5093786;28;20063;-36
2022/12/21 08:06:09;;;;;;;3.63;0.80;;;15.70;1.00;;;;;;5112129;28;20040;-36
2022/12/21 08:08:38;;;;;;;6.22;1.42;;;15.70;1.00;;;;;;5093704;28;20217;-36
2022/12/21 08:11:09;;;;;;;2.83;0.90;;;15.70;1.00;;;;;;5093759;28;20406;-36
2022/12/21 08:13:36;;;;;;;3.67;0.90;;;15.70;1.00;;;;;;5111911;28;20410;-36
2022/12/21 08:16:05;;;;;;;2.15;0.75;;;15.60;1.00;;;;;;5093753;28;20047;-36
2022/12/21 08:18:32;;;;;;;3.15;1.17;;;15.60;1.00;;;;;;5111934;28;20088;-36
2022/12/21 08:20:59;;;;;;;3.97;0.88;;;15.60;1.00;;;;;;5111989;28;20676;-36
2022/12/21 08:23:26;;;;;;;2.55;0.98;;;15.60;1.00;;;;;;5111739;28;20510;-36
2022/12/21 08:25:53;;;;;;;3.05;0.95;;;15.60;1.00;;;;;;5111930;28;20047;-36
2022/12/21 08:28:20;;;;;;;2.10;0.73;;;15.60;1.00;;;;;;5111688;28;20092;-36
2022/12/21 08:30:47;;;;;;;4.22;1.20;;;15.50;1.00;;;;;;5111840;28;20027;-36
2022/12/21 08:33:14;;;;;;;5.35;0.98;;;15.50;1.00;;;;;;5111419;28;20097;-36
2022/12/21 08:35:44;;;;;;;3.97;1.15;;;15.50;1.00;;;;;;5111743;28;20448;-36
2022/12/21 08:38:11;;;;;;;2.85;1.15;;;15.40;1.00;;;;;;5111778;28;20437;-36
2022/12/21 08:41:02;;;;;;;1.48;0.50;;;15.40;1.00;;;;;;5112612;28;20040;-36
2022/12/21 08:43:29;;;;;;;2.50;0.80;;;15.40;1.00;;;;;;5097032;28;20525;-36
2022/12/21 08:45:56;;;;;;;3.40;0.90;;;15.40;1.00;;;;;;5115729;28;20456;-36
2022/12/21 08:48:23;;;;;;;3.20;1.00;;;15.40;1.00;;;;;;5115686;28;20437;-36
2022/12/21 08:50:56;;;;;;;5.53;1.63;;;15.40;1.00;;;;;;5115617;28;20092;-36
2022/12/21 08:53:23;;;;;;;2.60;1.23;;;15.30;1.00;;;;;;5115169;28;20078;-36
2022/12/21 08:55:50;;;;;;;4.78;1.17;;;15.30;1.00;;;;;;5115462;28;20051;-36
2022/12/21 08:58:17;;;;;;;4.45;0.90;;;15.30;1.00;;;;;;5115440;28;20077;-36
2022/12/21 09:00:45;;;;;;;5.05;0.90;;;15.30;1.00;;;;;;5115300;28;20122;-36
2022/12/21 09:03:12;;;;;;;5.10;1.13;;;15.30;1.00;;;;;;5115048;28;20039;-36
2022/12/21 09:05:40;;;;;;;3.88;1.20;;;15.30;1.00;;;;;;5115256;28;20100;-36
2022/12/21 09:08:07;;;;;;;3.90;1.33;;;15.30;1.00;;;;;;5115214;28;20043;-37
2022/12/21 09:10:34;;;;;;;5.13;1.17;;;15.30;1.00;;;;;;5096730;28;20046;-36
2022/12/21 09:13:02;;;;;;;5.10;1.40;;;15.20;1.00;;;;;;5114911;28;20060;-36
2022/12/21 09:15:29;;;;;;;1.90;0.77;;;15.20;1.00;;;;;;5114929;28;20502;-36
2022/12/21 09:18:02;;;;;;;2.03;0.90;;;15.20;1.00;;;;;;5096781;28;20075;-36
2022/12/21 09:20:47;;;;;;;2.75;0.70;;;15.20;1.00;;;;;;5114925;28;20070;-37
2022/12/21 09:23:56;;;;;;;3.05;0.57;;;15.20;1.00;;;;;;5114736;28;20047;-38
2022/12/21 09:27:08;;;;;;;4.18;1.40;;;15.20;1.00;;;;;;5097632;28;20051;-38
2022/12/21 09:29:34;;;;;;;4.95;1.30;;;15.20;1.00;;;;;;5114860;28;20088;-38
2022/12/21 09:32:01;;;;;;;6.05;1.08;;;15.20;1.00;;;;;;5114871;28;20045;-38
2022/12/21 09:34:29;;;;;;;3.28;1.10;;;15.20;1.00;;;;;;5114209;28;20089;-38
2022/12/21 09:36:56;;;;;;;6.38;1.77;;;15.10;1.00;;;;;;5114700;28;20378;-38
2022/12/21 09:39:43;;;;;;;5.55;2.03;;;15.10;1.00;;;;;;5114671;28;20089;-38
2022/12/21 09:42:35;;;;;;;7.05;1.50;;;15.10;1.00;;;;;;5114331;28;20068;-37
2022/12/21 09:45:40;;;;;;;3.42;1.38;;;15.10;1.00;;;;;;5114343;28;20048;-38
2022/12/21 09:48:12;;;;;;;3.85;1.50;;;15.10;1.00;;;;;;5114416;28;20043;-38
2022/12/21 09:50:39;;;;;;;3.58;1.17;;;15.10;1.00;;;;;;5114374;28;20092;-38
2022/12/21 09:53:32;;;;;;;4.50;1.23;;;15.10;1.00;;;;;;5113542;28;20100;-38
2022/12/21 09:56:00;;;;;;;3.47;1.55;;;15.10;1.00;;;;;;5114264;28;20131;-38
2022/12/21 09:59:01;;;;;;;5.43;1.73;;;15.10;1.00;;;;;;5114322;28;20040;-38
2022/12/21 10:01:27;;;;;;;4.53;1.60;;;15.10;1.00;;;;;;5095957;28;20048;-38
2022/12/21 10:04:32;;;;;;;4.50;1.20;;;15.10;1.00;;;;;;5113991;28;20046;-38
2022/12/21 10:07:49;;;;;;;5.05;1.27;;;15.00;1.00;;;;;;5091616;28;20081;-38
2022/12/21 10:10:32;;;;;;;5.57;2.15;;;15.10;1.00;;;;;;5113980;28;20047;-38
2022/12/21 10:13:28;;;;;;;7.53;1.67;;;15.10;1.00;;;;;;5113800;28;20043;-35
2022/12/21 10:16:32;;;;;;;6.68;1.33;;;15.00;1.00;;;;;;5114008;28;20044;-38
2022/12/21 10:19:27;;;;;;;5.75;1.85;;;15.00;1.00;;;;;;5114016;28;20397;-38
2022/12/21 10:22:35;;;;;;;5.07;2.10;;;15.00;1.00;;;;;;5113770;28;20047;-38
2022/12/21 10:25:12;;;;;;;4.88;1.85;;;15.00;1.00;;;;;;5113884;28;20050;-38
2022/12/21 10:27:46;;;;;;;4.60;2.00;;;15.00;1.00;;;;;;5113872;28;20119;-38
2022/12/21 10:30:15;;;;;;;9.70;2.00;;;15.00;1.00;;;;;;5113669;28;20039;-38
2022/12/21 10:32:48;;;;;;;4.68;1.48;;;15.00;1.00;;;;;;5113449;28;20402;-38
2022/12/21 10:35:41;;;;;;;5.15;1.92;;;15.00;1.00;;;;;;5095277;28;20040;-38
2022/12/21 10:38:17;;;;;;;4.65;2.05;;;15.00;1.00;;;;;;5109342;28;20059;-38
2022/12/21 10:40:51;;;;;;;5.47;2.30;;;15.00;1.00;;;;;;5113370;28;20529;-38
2022/12/21 10:43:18;;;;;;;3.10;1.63;;;15.00;1.00;;;;;;5113173;28;20088;-38
2022/12/21 10:45:46;;;;;;;3.55;1.33;;;15.00;1.00;;;;;;5113346;28;20051;-38
2022/12/21 10:48:12;;;;;;;5.28;1.70;;;15.00;1.00;;;;;;5113212;28;20046;-38
2022/12/21 10:50:43;;;;;;;5.88;2.17;;;15.00;1.00;;;;;;5119324;22;20999;-35
2022/12/21 10:53:36;;;;;;;4.72;1.83;;;15.00;1.00;;;;;;5091806;28;20115;-36
2022/12/21 10:56:03;;;;;;;7.80;2.07;;;15.00;1.00;;;;;;5069566;28;20060;-36
2022/12/21 10:58:33;;;;;;;6.05;1.92;;;15.00;1.00;;;;;;5072558;28;20237;-36
2022/12/21 11:01:27;;;;;;;5.60;2.42;;;15.00;1.00;;;;;;5065622;28;20049;-37
2022/12/21 11:04:12;;;;;;;4.18;1.48;;;15.00;1.00;;;;;;5048633;28;20057;-37
2022/12/21 11:06:39;;;;;;;8.43;2.97;;;15.00;1.00;;;;;;5052304;28;20137;-37
2022/12/21 11:09:39;;;;;;;6.78;2.22;;;14.90;1.00;;;;;;5052160;28;20111;-37
2022/12/21 11:12:23;;;;;;;5.22;1.60;;;15.00;1.00;;;;;;5052258;28;20044;-36
2022/12/21 11:14:51;;;;;;;4.78;1.98;;;15.00;1.00;;;;;;5034170;28;20482;-37
2022/12/21 11:17:20;;;;;;;5.40;2.45;;;14.90;1.00;;;;;;5051851;28;20068;-36
2022/12/21 11:19:50;;;;;;;7.53;2.17;;;15.00;1.00;;;;;;5051684;28;20055;-36
2022/12/21 11:22:26;;;;;;;6.40;1.77;;;15.00;1.00;;;;;;5033858;28;20506;-37
2022/12/21 11:25:17;;;;;;;6.22;2.15;;;15.00;1.00;;;;;;5052018;28;20452;-37
2022/12/21 11:27:45;;;;;;;7.03;2.83;;;15.00;1.00;;;;;;5051955;28;20041;-37
2022/12/21 11:30:19;;;;;;;9.10;2.05;;;15.00;1.00;;;;;;5051679;28;20133;-37
2022/12/21 11:32:48;;;;;;;4.28;1.58;;;15.00;1.00;;;;;;5051725;28;20049;-37
2022/12/21 11:35:26;;;;;;;8.80;2.08;;;15.00;1.00;;;;;;5051734;28;20503;-37
2022/12/21 11:37:55;;;;;;;4.22;1.63;;;15.00;1.00;;;;;;5052022;28;20041;-37
2022/12/21 11:40:24;;;;;;;5.63;1.67;;;15.00;1.00;;;;;;5052156;28;20056;-37
2022/12/21 11:42:59;;;;;;;7.03;2.15;;;15.00;1.00;;;;;;5051610;28;20044;-38
2022/12/21 11:45:36;;;;;;;4.00;1.67;;;15.00;1.00;;;;;;5051761;28;20530;-38
2022/12/21 11:48:40;;;;;;;7.53;2.05;;;15.00;1.00;;;;;;5051934;28;20055;-38
2022/12/21 11:51:32;;;;;;;5.57;1.48;;;15.00;1.00;;;;;;5051502;28;20135;-37
2022/12/21 11:54:37;;;;;;;3.65;1.60;;;15.00;1.00;;;;;;5051528;28;20098;-38
2022/12/21 11:57:29;;;;;;;4.28;2.20;;;15.00;1.00;;;;;;5051559;28;20052;-37
2022/12/21 12:00:10;;;;;;;3.58;1.17;;;15.00;1.00;;;;;;5051647;28;20125;-37
2022/12/21 12:03:26;;;;;;;7.43;2.00;;;15.00;1.00;;;;;;5051401;28;20379;-38
2022/12/21 12:05:56;;;;;;;5.68;1.55;;;15.00;1.00;;;;;;5051550;28;20044;-38
2022/12/21 12:08:40;;;;;;;4.28;1.83;;;14.90;1.00;;;;;;5052068;28;20499;-37
2022/12/21 12:11:28;;;;;;;5.13;1.83;;;14.90;1.00;;;;;;5051538;28;20037;-36
2022/12/21 12:14:12;;;;;;;5.32;1.88;;;14.90;1.00;;;;;;5051221;28;20072;-37
2022/12/21 12:17:09;;;;;;;3.78;1.52;;;14.90;1.00;;;;;;5053629;28;20565;-37
2022/12/21 12:20:00;;;;;;;6.90;1.70;;;14.90;1.00;;;;;;5039553;28;20053;-37
2022/12/21 12:22:39;;;;;;;8.85;1.98;;;14.90;1.00;;;;;;5037369;28;20496;-37
2022/12/21 12:25:12;;;;;;;4.00;1.73;;;14.90;1.00;;;;;;5055526;28;20045;-36
2022/12/21 12:27:57;;;;;;;;;;;14.90;1.00;;;;;;5055961;28;20312;-37
2022/12/21 12:30:31;;;;;;;8.18;1.70;;;14.90;1.00;;;;;;5055138;28;19947;-37
2022/12/21 12:33:04;;;;;;;5.45;1.75;;;14.90;1.00;;;;;;5055138;28;20052;-37
2022/12/21 12:35:37;;;;;;;5.07;2.47;;;14.90;1.00;;;;;;5055170;28;20071;-37
2022/12/21 12:38:13;;;;;;;7.43;2.10;;;14.90;1.00;;;;;;5055349;28;20270;-36
2022/12/21 12:40:59;;;;;;;7.85;3.10;;;14.90;1.00;;;;;;5054948;28;20060;-36
2022/12/21 12:43:53;;;;;;;9.00;2.88;;;14.90;1.00;;;;;;5054837;28;20033;-36
2022/12/21 12:46:35;;;;;;;7.85;2.30;;;14.90;1.00;;;;;;5054949;28;20055;-37
2022/12/21 12:49:11;;;;;;;8.13;1.75;;;14.80;1.00;;;;;;5055008;28;20139;-37
2022/12/21 12:52:01;;;;;;;8.90;2.28;;;14.90;1.00;;;;;;5054814;28;20045;-37
2022/12/21 12:55:02;;;;;;;5.97;2.10;;;14.80;1.00;;;;;;5054649;28;20047;-37
2022/12/21 12:57:40;;;;;;;9.15;2.33;;;14.80;1.00;;;;;;4983696;28;20095;-36
2022/12/21 13:00:12;;;;;;;6.63;1.98;;;14.80;1.00;;;;;;5054773;28;20094;-36
2022/12/21 13:02:39;;;;;;;8.20;2.35;;;14.90;1.00;;;;;;5036722;28;20496;-36
2022/12/21 13:05:15;;;;;;;7.10;2.33;;;14.80;1.00;;;;;;5054614;28;20045;-37
2022/12/21 13:08:06;;;;;;;3.13;1.70;;;14.80;1.00;;;;;;5054807;28;20056;-37
2022/12/21 13:10:40;;;;;;;5.55;1.80;;;14.80;1.00;;;;;;5054440;28;20069;-37
2022/12/21 13:13:21;;;;;;;5.28;2.92;;;14.80;1.00;;;;;;5054410;28;20060;-37
2022/12/21 13:15:55;;;;;;;6.97;1.85;;;14.80;1.00;;;;;;5054419;28;20045;-37
2022/12/21 13:18:28;;;;;;;3.10;1.67;;;14.80;1.00;;;;;;5054409;28;20064;-37
2022/12/21 13:20:58;;;;;;;6.45;2.55;;;14.80;1.00;;;;;;5054448;28;20223;-37
2022/12/21 13:23:43;;;;;;;9.40;1.75;;;14.80;1.00;;;;;;5053943;28;20068;-37
2022/12/21 13:26:16;;;;;;;9.35;2.58;;;14.80;1.00;;;;;;5054390;28;20044;-36
2022/12/21 13:29:01;;;;;;;4.95;1.95;;;14.80;1.00;;;;;;5053221;28;20481;-37
2022/12/21 13:31:41;;;;;;;6.45;2.28;;;14.80;1.00;;;;;;5054061;28;20057;-37
2022/12/21 13:34:27;;;;;;;6.60;2.15;;;14.80;1.00;;;;;;5054005;28;20051;-37
2022/12/21 13:36:54;;;;;;;9.75;2.83;;;14.70;1.00;;;;;;5054003;28;20106;-37
2022/12/21 13:39:26;;;;;;;8.32;2.25;;;14.80;1.00;;;;;;5036097;28;20488;-37
2022/12/21 13:42:00;;;;;;;4.22;2.03;;;14.70;1.00;;;;;;5054016;28;20033;-36
2022/12/21 13:44:45;;;;;;;6.90;2.33;;;14.70;1.00;;;;;;5053725;28;20084;-36